createdAt,value
2022-11-25T00:01:17.344Z,3.87
2022-11-25T00:03:46.519Z,3.95
2022-11-25T00:06:16.913Z,3.90
2022-11-25T00:08:46.149Z,3.90
2022-11-25T00:11:15.336Z,3.95
2022-11-25T00:13:44.268Z,3.97
2022-11-25T00:16:15.782Z,3.89
2022-11-25T00:18:45.838Z,3.92
2022-11-25T00:21:15.930Z,3.94
2022-11-25T00:23:43.999Z,3.91
2022-11-25T00:26:13.165Z,3.89
2022-11-25T00:28:42.769Z,3.90
2022-11-25T00:31:13.921Z,3.88
2022-11-25T00:33:42.615Z,3.88
2022-11-25T00:36:16.644Z,3.88
2022-11-25T00:38:44.750Z,3.88
2022-11-25T00:41:29.913Z,3.80
2022-11-25T00:44:15.297Z,3.83
2022-11-25T00:46:44.563Z,3.87
2022-11-25T00:49:12.269Z,3.87
2022-11-25T00:51:39.921Z,3.84
2022-11-25T00:54:07.873Z,3.85
2022-11-25T00:56:35.530Z,3.87
2022-11-25T00:59:03.262Z,3.88
2022-11-25T01:01:30.995Z,3.78
2022-11-25T01:04:00.320Z,3.75
2022-11-25T01:06:28.234Z,3.80
2022-11-25T01:08:56.177Z,3.72
2022-11-25T01:11:24.963Z,3.70
2022-11-25T01:14:00.651Z,3.53
2022-11-25T01:16:29.866Z,3.64
2022-11-25T01:18:58.965Z,3.72
2022-11-25T01:21:29.886Z,3.71
2022-11-25T01:23:59.590Z,3.58
2022-11-25T01:26:27.644Z,3.61
2022-11-25T01:28:57.519Z,3.58
2022-11-25T01:31:27.288Z,3.52
2022-11-25T01:33:57.639Z,3.48
2022-11-25T01:36:26.275Z,3.41
2022-11-25T01:38:57.026Z,3.40
2022-11-25T01:41:27.393Z,3.34
2022-11-25T01:44:10.078Z,3.32
2022-11-25T01:46:55.749Z,3.35
2022-11-25T01:49:30.389Z,3.24
2022-11-25T01:52:04.082Z,3.32
2022-11-25T01:54:38.595Z,3.38
2022-11-25T01:57:12.690Z,3.27
2022-11-25T01:59:44.871Z,3.26
2022-11-25T02:02:13.349Z,3.25
2022-11-25T02:04:42.951Z,3.16
2022-11-25T02:07:16.020Z,3.01
2022-11-25T02:09:46.833Z,3.07
2022-11-25T02:12:16.457Z,3.03
2022-11-25T02:14:44.559Z,3.07
2022-11-25T02:17:12.521Z,3.02
2022-11-25T02:19:53.516Z,2.98
2022-11-25T02:22:27.924Z,2.86
2022-11-25T02:25:01.977Z,2.88
2022-11-25T02:27:31.150Z,2.85
2022-11-25T02:29:58.823Z,2.89
2022-11-25T02:32:26.458Z,2.89
2022-11-25T02:34:54.168Z,2.93
2022-11-25T02:37:24.347Z,2.89
2022-11-25T02:39:53.387Z,2.93
2022-11-25T02:42:23.646Z,2.89
2022-11-25T02:44:52.752Z,2.87
2022-11-25T02:47:20.385Z,2.78
2022-11-25T02:49:47.994Z,2.82
2022-11-25T02:52:16.479Z,2.79
2022-11-25T02:54:44.136Z,2.80
2022-11-25T02:57:11.715Z,2.83
2022-11-25T02:59:39.393Z,2.78
2022-11-25T03:02:08.419Z,2.84
2022-11-25T03:04:36.427Z,2.92
2022-11-25T03:07:04.224Z,2.97
2022-11-25T03:09:31.903Z,2.86
2022-11-25T03:12:16.991Z,2.85
2022-11-25T03:14:44.629Z,2.81
2022-11-25T03:17:13.629Z,2.75
2022-11-25T03:19:41.519Z,2.71
2022-11-25T03:22:09.190Z,2.75
2022-11-25T03:24:37.088Z,2.60
2022-11-25T03:27:05.234Z,2.59
2022-11-25T03:29:33.027Z,2.55
2022-11-25T03:32:02.477Z,2.51
2022-11-25T03:34:34.667Z,2.52
2022-11-25T03:37:02.422Z,2.60
2022-11-25T03:39:30.159Z,2.52
2022-11-25T03:41:57.812Z,2.48
2022-11-25T03:44:25.468Z,2.51
2022-11-25T03:46:53.146Z,2.43
2022-11-25T03:49:21.812Z,2.42
2022-11-25T03:51:51.111Z,2.38
2022-11-25T03:54:18.912Z,2.41
2022-11-25T03:56:46.635Z,2.39
2022-11-25T03:59:14.381Z,2.43
2022-11-25T04:01:44.468Z,2.42
2022-11-25T04:04:12.534Z,2.47
2022-11-25T04:06:40.215Z,2.42
2022-11-25T04:09:11.941Z,2.37
2022-11-25T04:11:57.274Z,2.36
2022-11-25T04:14:24.973Z,2.31
2022-11-25T04:16:52.712Z,2.21
2022-11-25T04:19:20.373Z,2.12
2022-11-25T04:21:52.340Z,2.20
2022-11-25T04:24:22.226Z,2.09
2022-11-25T04:26:50.169Z,2.23
2022-11-25T04:29:17.886Z,2.10
2022-11-25T04:31:45.810Z,2.17
2022-11-25T04:34:13.627Z,2.05
2022-11-25T04:36:41.350Z,2.17
2022-11-25T04:39:09.159Z,2.22
2022-11-25T04:41:38.186Z,2.23
2022-11-25T04:44:06.132Z,2.13
2022-11-25T04:46:36.998Z,2.13
2022-11-25T04:49:04.799Z,2.14
2022-11-25T04:51:32.780Z,2.02
2022-11-25T04:54:00.528Z,2.02
2022-11-25T04:56:28.402Z,1.95
2022-11-25T04:59:14.892Z,1.97
2022-11-25T05:01:42.672Z,1.93
2022-11-25T05:04:10.410Z,1.94
2022-11-25T05:06:38.178Z,1.86
2022-11-25T05:09:06.171Z,1.93
2022-11-25T05:11:33.955Z,2.00
2022-11-25T05:14:03.006Z,2.05
2022-11-25T05:16:30.689Z,2.07
2022-11-25T05:18:58.451Z,2.05
2022-11-25T05:21:26.153Z,2.02
2022-11-25T05:23:56.136Z,1.98
2022-11-25T05:26:24.027Z,2.01
2022-11-25T05:28:51.678Z,1.93
2022-11-25T05:31:20.779Z,1.91
2022-11-25T05:33:48.476Z,1.95
2022-11-25T05:36:16.203Z,2.01
2022-11-25T05:38:43.972Z,2.00
2022-11-25T05:41:12.135Z,1.86
2022-11-25T05:43:39.846Z,1.87
2022-11-25T05:46:07.961Z,1.88
2022-11-25T05:48:37.165Z,1.92
2022-11-25T05:51:05.822Z,1.91
2022-11-25T05:53:33.826Z,1.77
2022-11-25T05:56:02.976Z,1.82
2022-11-25T05:58:31.887Z,1.79
2022-11-25T06:00:59.646Z,1.86
2022-11-25T06:03:28.522Z,1.86
2022-11-25T06:05:58.597Z,2.02
2022-11-25T06:08:26.964Z,2.00
2022-11-25T06:10:55.264Z,1.96
2022-11-25T06:13:23.316Z,1.79
2022-11-25T06:15:51.230Z,1.91
2022-11-25T06:18:19.506Z,1.89
2022-11-25T06:20:56.348Z,1.84
2022-11-25T06:23:25.558Z,1.83
2022-11-25T06:25:53.583Z,1.87
2022-11-25T06:28:21.333Z,1.94
2022-11-25T06:30:49.124Z,2.03
2022-11-25T06:33:16.910Z,2.03
2022-11-25T06:35:44.659Z,2.08
2022-11-25T06:38:12.355Z,2.15
2022-11-25T06:40:41.358Z,2.19
2022-11-25T06:43:09.055Z,2.22
2022-11-25T06:45:36.716Z,2.30
2022-11-25T06:48:05.031Z,2.38
2022-11-25T06:50:32.688Z,2.41
2022-11-25T06:53:02.206Z,2.40
2022-11-25T06:55:29.932Z,2.40
2022-11-25T06:58:20.235Z,2.55
2022-11-25T07:00:46.529Z,2.64
2022-11-25T07:03:14.231Z,2.62
2022-11-25T07:05:41.960Z,2.75
2022-11-25T07:08:09.660Z,2.79
2022-11-25T07:10:37.428Z,2.64
2022-11-25T07:13:06.395Z,2.64
2022-11-25T07:15:35.473Z,2.66
2022-11-25T07:18:03.177Z,2.77
2022-11-25T07:20:30.843Z,2.79
2022-11-25T07:22:58.512Z,2.68
2022-11-25T07:25:30.840Z,2.77
2022-11-25T07:27:58.705Z,2.86
2022-11-25T07:33:15.598Z,2.93
2022-11-25T07:35:43.329Z,3.03
2022-11-25T07:38:11.368Z,3.10
2022-11-25T07:40:39.031Z,3.22
2022-11-25T07:43:06.751Z,3.17
2022-11-25T07:45:37.398Z,3.22
2022-11-25T07:48:06.340Z,3.39
2022-11-25T07:50:34.300Z,3.27
2022-11-25T07:53:02.248Z,3.55
2022-11-25T07:55:29.910Z,3.46
2022-11-25T07:57:57.699Z,4.00
2022-11-25T08:00:25.811Z,4.06
2022-11-25T08:02:54.991Z,4.15
2022-11-25T08:05:22.728Z,4.17
2022-11-25T08:07:50.495Z,4.79
2022-11-25T08:10:18.407Z,6.36
2022-11-25T08:12:46.192Z,5.76
2022-11-25T08:15:13.860Z,6.35
2022-11-25T08:17:41.687Z,6.61
2022-11-25T08:20:11.379Z,6.11
2022-11-25T08:22:39.079Z,5.75
2022-11-25T08:25:07.664Z,5.19
2022-11-25T08:27:35.354Z,5.02
2022-11-25T08:30:03.109Z,4.73
2022-11-25T08:32:30.877Z,4.69
2022-11-25T08:34:59.176Z,4.62
2022-11-25T08:37:28.271Z,5.08
2022-11-25T08:39:56.447Z,6.04
2022-11-25T08:42:24.502Z,6.94
2022-11-25T08:44:53.971Z,7.20
2022-11-25T08:47:22.351Z,7.77
2022-11-25T08:49:52.143Z,7.65
2022-11-25T08:52:20.257Z,8.58
2022-11-25T08:54:49.737Z,7.91
2022-11-25T08:57:17.707Z,8.62
2022-11-25T08:59:45.342Z,9.27
2022-11-25T09:02:16.931Z,7.98
2022-11-25T09:04:44.843Z,8.33
2022-11-25T09:07:12.561Z,9.31
2022-11-25T09:09:40.617Z,7.90
2022-11-25T09:12:09.722Z,8.32
2022-11-25T09:14:37.386Z,7.97
2022-11-25T09:17:10.176Z,7.75
2022-11-25T09:19:39.511Z,7.89
2022-11-25T09:22:08.222Z,7.53
2022-11-25T09:24:36.196Z,8.69
2022-11-25T09:27:04.252Z,8.81
2022-11-25T09:29:33.642Z,9.26
2022-11-25T09:32:01.533Z,8.94
2022-11-25T09:34:29.283Z,8.67
2022-11-25T09:36:56.979Z,9.72
2022-11-25T09:39:28.150Z,9.21
2022-11-25T09:42:26.005Z,8.14
2022-11-25T09:45:34.993Z,8.03
2022-11-25T09:48:15.494Z,7.46
2022-11-25T09:50:55.151Z,7.35
2022-11-25T09:53:36.658Z,7.34
2022-11-25T09:56:12.242Z,7.28
2022-11-25T09:58:47.665Z,7.29
2022-11-25T10:01:20.338Z,6.76
2022-11-25T10:03:52.559Z,6.96
2022-11-25T10:06:24.420Z,8.34
2022-11-25T10:08:56.261Z,9.81
2022-11-25T10:11:34.400Z,10.43
2022-11-25T10:14:06.969Z,9.52
2022-11-25T10:16:51.259Z,8.99
2022-11-25T10:19:28.358Z,8.92
2022-11-25T10:21:56.065Z,9.25
2022-11-25T10:24:24.993Z,9.16
2022-11-25T10:27:00.951Z,9.27
2022-11-25T10:29:30.582Z,8.75
2022-11-25T10:32:21.888Z,9.57
2022-11-25T10:34:53.726Z,8.58
2022-11-25T10:37:28.458Z,9.12
2022-11-25T10:39:56.362Z,9.74
2022-11-25T10:42:28.547Z,9.92
2022-11-25T10:44:56.311Z,9.74
2022-11-25T10:47:37.341Z,10.48
2022-11-25T10:50:15.620Z,10.62
2022-11-25T10:52:52.310Z,10.41
2022-11-25T10:55:24.151Z,9.39
2022-11-25T10:57:52.101Z,9.45
2022-11-25T11:00:30.600Z,9.02
2022-11-25T11:03:02.773Z,9.27
2022-11-25T11:05:31.976Z,8.53
2022-11-25T11:08:21.554Z,8.36
2022-11-25T11:11:11.315Z,8.12
2022-11-25T11:13:39.292Z,7.95
2022-11-25T11:16:24.872Z,8.02
2022-11-25T11:18:55.439Z,7.93
2022-11-25T11:21:26.259Z,7.74
2022-11-25T11:23:55.580Z,7.95
2022-11-25T11:26:32.694Z,7.75
2022-11-25T11:29:03.706Z,7.79
2022-11-25T11:31:36.259Z,7.92
2022-11-25T11:34:25.701Z,7.96
2022-11-25T11:37:11.657Z,8.23
2022-11-25T11:40:00.202Z,8.02
2022-11-25T11:42:40.251Z,8.21
2022-11-25T11:45:23.973Z,8.14
2022-11-25T11:48:05.361Z,7.86
2022-11-25T11:50:39.785Z,7.79
2022-11-25T11:53:12.391Z,7.49
2022-11-25T11:56:33.476Z,7.80
2022-11-25T11:59:02.710Z,7.62
2022-11-25T12:01:42.604Z,7.68
2022-11-25T12:04:20.048Z,7.78
2022-11-25T12:07:03.447Z,8.05
2022-11-25T12:09:33.526Z,7.81
2022-11-25T12:12:05.828Z,7.91
2022-11-25T12:14:41.138Z,8.02
2022-11-25T12:17:14.817Z,7.69
2022-11-25T12:19:50.155Z,7.82
2022-11-25T12:22:26.575Z,7.82
2022-11-25T12:25:02.821Z,7.82
2022-11-25T12:27:36.298Z,7.65
2022-11-25T12:30:07.282Z,7.55
2022-11-25T12:33:00.009Z,7.86
2022-11-25T12:35:37.865Z,7.89
2022-11-25T12:38:22.174Z,7.86
2022-11-25T12:40:58.131Z,8.07
2022-11-25T12:43:34.544Z,7.99
2022-11-25T12:46:11.520Z,7.97
2022-11-25T12:48:44.961Z,7.99
2022-11-25T12:51:29.692Z,8.04
2022-11-25T12:54:11.857Z,8.12
2022-11-25T12:57:03.732Z,8.11
2022-11-25T13:00:17.539Z,8.09
2022-11-25T13:03:10.730Z,8.25
2022-11-25T13:06:01.014Z,7.86
2022-11-25T13:08:45.408Z,7.97
2022-11-25T13:11:33.482Z,8.10
2022-11-25T13:14:15.087Z,8.21
2022-11-25T13:16:47.059Z,8.02
2022-11-25T13:19:17.918Z,8.05
2022-11-25T13:21:58.058Z,7.97
2022-11-25T13:24:33.758Z,8.04
2022-11-25T13:27:05.170Z,8.21
2022-11-25T13:30:03.819Z,8.15
2022-11-25T13:32:49.376Z,8.05
2022-11-25T13:35:51.300Z,8.13
2022-11-25T13:39:05.545Z,8.05
2022-11-25T13:41:46.412Z,7.95
2022-11-25T13:44:25.307Z,7.86
2022-11-25T13:46:54.663Z,7.78
2022-11-25T13:49:32.322Z,7.78
2022-11-25T13:52:03.087Z,7.79
2022-11-25T13:54:36.508Z,7.73
2022-11-25T13:57:27.683Z,7.68
2022-11-25T14:00:00.603Z,7.58
2022-11-25T14:02:35.316Z,7.60
2022-11-25T14:05:27.245Z,7.62
2022-11-25T14:08:10.589Z,7.47
2022-11-25T14:10:46.735Z,7.47
2022-11-25T14:13:45.921Z,7.46
2022-11-25T14:16:41.595Z,7.47
2022-11-25T14:19:55.347Z,7.65
2022-11-25T14:22:37.271Z,7.60
2022-11-25T14:25:17.465Z,7.58
2022-11-25T14:27:48.251Z,7.60
2022-11-25T14:30:17.551Z,7.53
2022-11-25T14:32:56.019Z,7.51
2022-11-25T14:35:28.064Z,7.50
2022-11-25T14:38:01.391Z,7.53
2022-11-25T14:40:35.659Z,7.44
2022-11-25T14:43:06.825Z,7.41
2022-11-25T14:45:36.406Z,7.48
2022-11-25T14:48:19.714Z,7.43
2022-11-25T14:50:57.008Z,7.46
2022-11-25T14:53:25.953Z,7.49
2022-11-25T14:55:54.950Z,7.56
2022-11-25T14:58:23.035Z,7.56
2022-11-25T15:00:52.396Z,7.65
2022-11-25T15:03:22.068Z,7.62
2022-11-25T15:05:57.044Z,7.64
2022-11-25T15:08:26.352Z,7.69
2022-11-25T15:10:57.108Z,7.65
2022-11-25T15:13:33.057Z,7.56
2022-11-25T15:16:07.715Z,7.58
2022-11-25T15:18:39.184Z,7.64
2022-11-25T15:21:07.659Z,7.61
2022-11-25T15:23:38.825Z,7.61
2022-11-25T15:26:17.769Z,7.62
2022-11-25T15:28:46.035Z,7.62
2022-11-25T15:31:19.850Z,7.65
2022-11-25T15:33:54.838Z,7.63
2022-11-25T15:36:23.555Z,7.64
2022-11-25T15:38:51.448Z,7.65
2022-11-25T15:41:31.477Z,7.65
2022-11-25T15:44:02.018Z,7.68
2022-11-25T15:46:31.625Z,7.68
2022-11-25T15:49:04.052Z,7.65
2022-11-25T15:51:36.391Z,7.67
2022-11-25T15:54:08.741Z,7.63
2022-11-25T15:56:39.973Z,7.62
2022-11-25T15:59:39.565Z,7.62
2022-11-25T16:02:32.860Z,7.66
2022-11-25T16:05:27.055Z,7.64
2022-11-25T16:08:16.795Z,7.62
2022-11-25T16:10:52.876Z,7.62
2022-11-25T16:13:35.418Z,7.65
2022-11-25T16:16:15.241Z,7.67
2022-11-25T16:18:51.401Z,7.60
2022-11-25T16:21:23.452Z,7.63
2022-11-25T16:23:54.829Z,7.60
2022-11-25T16:26:29.155Z,7.62
2022-11-25T16:28:58.748Z,7.61
2022-11-25T16:31:27.319Z,7.62
2022-11-25T16:33:56.922Z,7.62
2022-11-25T16:36:25.948Z,7.67
2022-11-25T16:38:54.657Z,7.65
2022-11-25T16:41:24.894Z,7.66
2022-11-25T16:43:52.787Z,7.76
2022-11-25T16:46:21.430Z,7.73
2022-11-25T16:48:49.191Z,7.65
2022-11-25T16:51:18.680Z,7.73
2022-11-25T16:53:48.535Z,7.72
2022-11-25T16:56:18.918Z,7.71
2022-11-25T16:58:46.873Z,7.68
2022-11-25T17:01:17.870Z,7.61
2022-11-25T17:03:45.532Z,7.65
2022-11-25T17:06:22.219Z,7.64
2022-11-25T17:08:52.054Z,7.69
2022-11-25T17:11:24.892Z,7.68
2022-11-25T17:13:53.754Z,7.66
2022-11-25T17:16:24.209Z,7.67
2022-11-25T17:18:54.354Z,7.62
2022-11-25T17:21:26.710Z,7.65
2022-11-25T17:23:59.230Z,7.62
2022-11-25T17:26:36.530Z,7.64
2022-11-25T17:29:07.459Z,7.60
2022-11-25T17:31:38.479Z,7.55
2022-11-25T17:34:06.327Z,7.51
2022-11-25T17:36:34.007Z,7.47
2022-11-25T17:39:03.164Z,7.47
2022-11-25T17:41:34.221Z,7.43
2022-11-25T17:44:04.578Z,7.38
2022-11-25T17:46:32.224Z,7.37
2022-11-25T17:49:00.425Z,7.43
2022-11-25T17:51:28.224Z,7.41
2022-11-25T17:53:55.970Z,7.33
2022-11-25T17:56:28.822Z,7.30
2022-11-25T17:58:58.857Z,7.25
2022-11-25T18:01:26.999Z,7.22
2022-11-25T18:03:54.677Z,7.20
2022-11-25T18:06:23.201Z,7.20
2022-11-25T18:08:50.914Z,7.25
2022-11-25T18:11:22.939Z,7.29
2022-11-25T18:13:52.047Z,7.33
2022-11-25T18:16:20.845Z,7.24
2022-11-25T18:18:48.671Z,7.28
2022-11-25T18:21:16.389Z,7.23
2022-11-25T18:23:44.153Z,7.25
2022-11-25T18:26:13.193Z,7.21
2022-11-25T18:28:41.020Z,7.26
2022-11-25T18:31:12.865Z,7.32
2022-11-25T18:33:41.697Z,7.33
2022-11-25T18:36:13.841Z,7.34
2022-11-25T18:38:41.932Z,7.39
2022-11-25T18:41:20.255Z,7.35
2022-11-25T18:43:48.097Z,7.31
2022-11-25T18:46:17.225Z,7.37
2022-11-25T18:48:44.979Z,7.35
2022-11-25T18:51:14.329Z,7.28
2022-11-25T18:53:42.138Z,7.27
2022-11-25T18:56:17.676Z,7.25
2022-11-25T18:58:51.644Z,7.23
2022-11-25T19:01:23.614Z,7.14
2022-11-25T19:03:51.362Z,7.10
2022-11-25T19:06:19.136Z,7.04
2022-11-25T19:08:47.029Z,6.99
2022-11-25T19:11:18.853Z,6.92
2022-11-25T19:13:50.835Z,6.88
2022-11-25T19:16:22.549Z,6.85
2022-11-25T19:18:50.657Z,6.82
2022-11-25T19:21:20.757Z,6.74
2022-11-25T19:23:48.925Z,6.69
2022-11-25T19:26:18.778Z,6.65
2022-11-25T19:28:49.491Z,6.62
2022-11-25T19:31:22.133Z,6.60
2022-11-25T19:33:52.244Z,6.64
2022-11-25T19:36:24.123Z,6.70
2022-11-25T19:38:52.495Z,6.72
2022-11-25T19:41:20.803Z,6.70
2022-11-25T19:43:48.540Z,6.75
2022-11-25T19:46:30.009Z,6.80
2022-11-25T19:49:03.558Z,6.76
2022-11-25T19:51:33.590Z,6.71
2022-11-25T19:54:01.287Z,6.70
2022-11-25T19:56:28.987Z,6.73
2022-11-25T19:58:57.679Z,6.71
2022-11-25T20:01:32.897Z,6.73
2022-11-25T20:04:02.215Z,6.73
2022-11-25T20:06:31.292Z,6.78
2022-11-25T20:09:05.461Z,6.78
2022-11-25T20:11:36.731Z,6.77
2022-11-25T20:14:05.386Z,6.78
2022-11-25T20:16:37.331Z,6.82
2022-11-25T20:19:06.985Z,6.85
2022-11-25T20:21:37.624Z,6.86
2022-11-25T20:24:12.766Z,6.88
2022-11-25T20:26:45.839Z,6.84
2022-11-25T20:29:17.178Z,6.79
2022-11-25T20:31:46.434Z,6.77
2022-11-25T20:34:14.683Z,6.71
2022-11-25T20:36:44.434Z,6.70
2022-11-25T20:39:18.421Z,6.77
2022-11-25T20:41:49.543Z,6.78
2022-11-25T20:44:19.872Z,6.79
2022-11-25T20:46:49.189Z,6.80
2022-11-25T20:49:22.862Z,6.80
2022-11-25T20:51:51.299Z,6.82
2022-11-25T20:54:19.265Z,6.87
2022-11-25T20:56:47.001Z,6.90
2022-11-25T20:59:21.711Z,6.98
2022-11-25T21:01:52.771Z,7.01
2022-11-25T21:04:22.067Z,6.95
2022-11-25T21:06:49.858Z,6.97
2022-11-25T21:09:20.852Z,6.96
2022-11-25T21:11:49.284Z,6.91
2022-11-25T21:14:19.068Z,6.85
2022-11-25T21:16:47.390Z,6.79
2022-11-25T21:19:16.774Z,6.71
2022-11-25T21:21:47.143Z,6.67
2022-11-25T21:24:27.992Z,6.69
2022-11-25T21:26:57.517Z,6.68
2022-11-25T21:29:25.513Z,6.70
2022-11-25T21:31:53.356Z,6.72
2022-11-25T21:34:22.585Z,6.71
2022-11-25T21:36:54.554Z,6.70
2022-11-25T21:39:29.279Z,6.70
2022-11-25T21:41:59.491Z,6.81
2022-11-25T21:44:31.857Z,6.86
2022-11-25T21:46:59.708Z,6.86
2022-11-25T21:49:28.976Z,6.78
2022-11-25T21:51:56.719Z,6.87
2022-11-25T21:54:24.457Z,6.89
2022-11-25T21:56:52.463Z,6.91
2022-11-25T21:59:21.552Z,6.88
2022-11-25T22:01:49.599Z,6.84
2022-11-25T22:04:19.629Z,6.82
2022-11-25T22:06:49.293Z,6.84
2022-11-25T22:09:17.167Z,6.85
2022-11-25T22:11:47.398Z,6.92
2022-11-25T22:14:23.714Z,6.90
2022-11-25T22:16:51.638Z,6.92
2022-11-25T22:19:21.604Z,6.95
2022-11-25T22:21:50.698Z,6.99
2022-11-25T22:24:20.302Z,7.01
2022-11-25T22:26:54.624Z,6.93
2022-11-25T22:29:30.260Z,6.92
2022-11-25T22:31:58.098Z,6.92
2022-11-25T22:34:26.634Z,6.94
2022-11-25T22:36:55.613Z,6.91
2022-11-25T22:39:24.781Z,6.97
2022-11-25T22:41:55.904Z,6.90
2022-11-25T22:44:28.277Z,6.81
2022-11-25T22:46:56.187Z,6.79
2022-11-25T22:49:37.544Z,6.80
2022-11-25T22:52:11.583Z,6.81
2022-11-25T22:54:39.463Z,6.84
2022-11-25T22:57:08.997Z,6.81
2022-11-25T22:59:36.754Z,6.76
2022-11-25T23:02:04.884Z,6.72
2022-11-25T23:04:32.819Z,6.72
2022-11-25T23:07:00.890Z,6.65
2022-11-25T23:09:33.067Z,6.61
2022-11-25T23:12:00.770Z,6.62
2022-11-25T23:14:28.507Z,6.61
2022-11-25T23:16:56.314Z,6.63
2022-11-25T23:19:24.111Z,6.62
2022-11-25T23:21:51.809Z,6.69
2022-11-25T23:24:19.586Z,6.70
2022-11-25T23:26:48.597Z,6.72
2022-11-25T23:29:16.240Z,6.68
2022-11-25T23:31:44.046Z,6.64
2022-11-25T23:34:13.749Z,6.68
2022-11-25T23:36:45.637Z,6.69
2022-11-25T23:39:20.009Z,6.62
2022-11-25T23:41:49.919Z,6.68
2022-11-25T23:44:24.525Z,6.59
2022-11-25T23:46:52.773Z,6.51
2022-11-25T23:49:25.031Z,6.50
2022-11-25T23:51:55.905Z,6.48
2022-11-25T23:54:30.727Z,6.45
2022-11-25T23:57:02.021Z,6.38
2022-11-25T23:59:31.250Z,6.33
